createdAt,value
2018-09-25T00:02:30.134Z,98717.11
2018-09-25T00:07:29.685Z,98715.94
2018-09-25T00:12:29.424Z,98721.33
2018-09-25T00:17:29.001Z,98722.63
2018-09-25T00:22:28.524Z,98723.60
2018-09-25T00:27:28.099Z,98728.25
2018-09-25T00:32:27.767Z,98734.45
2018-09-25T00:37:27.400Z,98733.62
2018-09-25T00:42:27.137Z,98733.45
2018-09-25T00:47:26.643Z,98730.63
2018-09-25T00:52:26.170Z,98728.61
2018-09-25T00:57:25.783Z,98713.74
2018-09-25T01:02:25.327Z,98715.50
2018-09-25T01:07:25.052Z,98712.52
2018-09-25T01:12:24.565Z,98715.46
2018-09-25T01:17:24.293Z,98719.83
2018-09-25T01:22:23.955Z,98718.63
2018-09-25T01:27:23.575Z,98718.45
2018-09-25T01:32:23.302Z,98724.88
2018-09-25T01:37:22.881Z,98723.75
2018-09-25T01:42:22.459Z,98722.94
2018-09-25T01:47:22.027Z,98727.38
2018-09-25T01:52:21.671Z,98721.18
2018-09-25T01:57:21.223Z,98713.64
2018-09-25T02:02:20.867Z,98729.88
2018-09-25T02:07:20.533Z,98726.23
2018-09-25T02:12:20.094Z,98728.94
2018-09-25T02:17:19.612Z,98724.17
2018-09-25T02:22:19.335Z,98721.89
2018-09-25T02:27:18.959Z,98731.62
2018-09-25T02:32:18.587Z,98731.27
2018-09-25T02:37:19.069Z,98741.66
2018-09-25T02:42:18.996Z,98738.71
2018-09-25T02:47:18.515Z,98740.35
2018-09-25T02:52:18.229Z,98740.44
2018-09-25T02:57:17.809Z,98740.08
2018-09-25T03:02:17.476Z,98729.67
2018-09-25T03:07:17.247Z,98728.24
2018-09-25T03:12:16.992Z,98723.56
2018-09-25T03:17:16.589Z,98723.85
2018-09-25T03:22:16.301Z,98727.85
2018-09-25T03:27:16.122Z,98722.23
2018-09-25T03:32:15.831Z,98716.09
2018-09-25T03:37:15.399Z,98723.91
2018-09-25T03:42:15.019Z,98722.94
2018-09-25T03:47:14.599Z,98723.05
2018-09-25T03:52:14.552Z,98731.63
2018-09-25T03:57:14.249Z,98725.39
2018-09-25T04:02:13.837Z,98723.73
2018-09-25T04:07:13.684Z,98719.89
2018-09-25T04:12:13.217Z,98720.91
2018-09-25T04:17:12.948Z,98728.41
2018-09-25T04:22:12.511Z,98723.66
2018-09-25T04:27:12.200Z,98713.92
2018-09-25T04:32:12.025Z,98707.25
2018-09-25T04:37:11.679Z,98708.91
2018-09-25T04:42:11.439Z,98699.86
2018-09-25T04:47:11.180Z,98711.23
2018-09-25T04:52:10.920Z,98712.20
2018-09-25T04:57:10.758Z,98709.28
2018-09-25T05:02:10.392Z,98714.30
2018-09-25T05:07:10.096Z,98715.45
2018-09-25T05:12:09.910Z,98704.94
2018-09-25T05:17:09.755Z,98709.11
2018-09-25T05:22:09.473Z,98705.54
2018-09-25T05:27:09.094Z,98716.84
2018-09-25T05:32:08.724Z,98707.67
2018-09-25T05:37:08.328Z,98708.86
2018-09-25T05:42:08.099Z,98712.68
2018-09-25T05:47:07.698Z,98713.59
2018-09-25T05:52:09.777Z,98717.64
2018-09-25T05:57:09.504Z,98726.66
2018-09-25T06:02:09.132Z,98724.27
2018-09-25T06:07:09.268Z,98730.03
2018-09-25T06:12:09.394Z,98739.66
2018-09-25T06:17:09.294Z,98740.81
2018-09-25T06:22:09.443Z,98757.20
2018-09-25T06:27:09.255Z,98751.36
2018-09-25T06:32:09.191Z,98756.81
2018-09-25T06:37:09.043Z,98761.34
2018-09-25T06:42:08.740Z,98762.19
2018-09-25T06:47:08.650Z,98765.12
2018-09-25T06:52:08.595Z,98759.67
2018-09-25T06:57:08.341Z,98760.52
2018-09-25T07:02:08.229Z,98746.41
2018-09-25T07:07:08.143Z,98750.31
2018-09-25T07:12:08.038Z,98758.67
2018-09-25T07:17:08.390Z,98755.63
2018-09-25T07:22:20.189Z,98750.07
2018-09-25T07:27:20.328Z,98750.54
2018-09-25T07:32:20.232Z,98753.20
2018-09-25T07:37:20.172Z,98764.81
2018-09-25T07:42:20.144Z,98776.58
2018-09-25T07:47:21.165Z,98773.30
2018-09-25T07:52:21.134Z,98778.25
2018-09-25T07:57:35.758Z,98777.33
2018-09-25T08:02:35.997Z,98777.57
2018-09-25T08:07:36.430Z,98783.28
2018-09-25T08:12:36.808Z,98777.66
2018-09-25T08:17:37.124Z,98775.63
2018-09-25T08:22:39.014Z,98779.98
2018-09-25T08:27:39.676Z,98790.53
2018-09-25T08:32:42.577Z,98779.75
2018-09-25T08:37:43.184Z,98783.00
2018-09-25T08:42:43.565Z,98789.26
2018-09-25T08:47:43.918Z,98810.36
2018-09-25T08:52:44.728Z,98790.67
2018-09-25T08:57:48.271Z,98776.70
2018-09-25T09:02:49.086Z,98782.17
2018-09-25T09:07:50.044Z,98775.41
2018-09-25T09:12:51.200Z,98787.62
2018-09-25T09:17:51.716Z,98775.92
2018-09-25T09:22:53.540Z,98773.53
2018-09-25T09:27:53.679Z,98782.48
2018-09-25T09:32:53.674Z,98756.95
2018-09-25T09:37:53.705Z,98760.34
2018-09-25T09:42:53.342Z,98760.17
2018-09-25T09:47:55.473Z,98761.48
2018-09-25T09:52:55.239Z,98766.30
2018-09-25T09:57:55.402Z,98769.67
2018-09-25T10:02:55.335Z,98759.25
2018-09-25T10:07:55.619Z,98755.67
2018-09-25T10:12:55.850Z,98768.59
2018-09-25T10:17:58.212Z,98757.70
2018-09-25T10:22:58.506Z,98748.41
2018-09-25T10:27:58.409Z,98748.58
2018-09-25T10:32:58.623Z,98754.78
2018-09-25T10:37:59.174Z,98746.64
2018-09-25T10:42:59.826Z,98744.20
2018-09-25T10:47:59.874Z,98740.60
2018-09-25T10:53:01.053Z,98762.25
2018-09-25T10:58:03.679Z,98731.62
2018-09-25T11:03:04.134Z,98733.37
2018-09-25T11:08:04.529Z,98733.02
2018-09-25T11:13:04.381Z,98724.13
2018-09-25T11:18:04.240Z,98729.45
2018-09-25T11:23:04.484Z,98729.77
2018-09-25T11:28:05.972Z,98722.34
2018-09-25T11:33:05.948Z,98729.23
2018-09-25T11:38:05.939Z,98726.44
2018-09-25T11:43:09.179Z,98723.16
2018-09-25T11:48:16.424Z,98708.02
2018-09-25T11:53:16.045Z,98691.70
2018-09-25T11:58:17.556Z,98698.96
2018-09-25T12:03:17.674Z,98684.98
2018-09-25T12:08:17.300Z,98683.27
2018-09-25T12:13:16.885Z,98700.22
2018-09-25T12:18:16.458Z,98675.84
2018-09-25T12:23:16.298Z,98670.56
2018-09-25T12:28:15.938Z,98675.13
2018-09-25T12:33:16.041Z,98681.83
2018-09-25T12:38:21.496Z,98669.23
2018-09-25T12:43:31.431Z,98658.27
2018-09-25T12:48:40.374Z,98663.05
2018-09-25T12:53:40.467Z,98655.59
2018-09-25T12:58:40.205Z,98677.67
2018-09-25T13:03:39.865Z,98650.63
2018-09-25T13:08:39.730Z,98650.63
2018-09-25T13:13:39.511Z,98644.86
2018-09-25T13:18:39.109Z,98636.09
2018-09-25T13:23:38.819Z,98637.30
2018-09-25T13:28:38.400Z,98643.03
2018-09-25T13:33:38.350Z,98632.73
2018-09-25T13:38:38.403Z,98635.11
2018-09-25T13:43:38.767Z,98627.55
2018-09-25T13:48:38.750Z,98643.01
2018-09-25T13:53:38.301Z,98635.08
2018-09-25T13:58:39.043Z,98631.20
2018-09-25T14:03:38.660Z,98633.64
2018-09-25T14:08:38.463Z,98627.16
2018-09-25T14:13:38.286Z,98621.56
2018-09-25T14:18:38.093Z,98628.28
2018-09-25T14:23:37.688Z,98645.07
2018-09-25T14:28:37.194Z,98626.58
2018-09-25T14:33:36.883Z,98627.86
2018-09-25T14:38:36.501Z,98624.91
2018-09-25T14:43:36.203Z,98636.43
2018-09-25T14:48:35.878Z,98631.42
2018-09-25T14:53:35.535Z,98627.55
2018-09-25T14:58:35.204Z,98629.09
2018-09-25T15:03:34.870Z,98627.35
2018-09-25T15:08:35.185Z,98664.97
2018-09-25T15:13:34.821Z,98643.75
2018-09-25T15:18:34.527Z,98634.49
2018-09-25T15:23:34.308Z,98636.14
2018-09-25T15:28:34.071Z,98644.77
2018-09-25T15:33:34.021Z,98626.39
2018-09-25T15:38:33.648Z,98628.29
2018-09-25T15:43:33.254Z,98632.88
2018-09-25T15:48:32.848Z,98638.16
2018-09-25T15:53:32.445Z,98632.75
2018-09-25T15:58:32.087Z,98633.98
2018-09-25T16:03:31.817Z,98642.67
2018-09-25T16:08:31.544Z,98633.92
2018-09-25T16:13:31.147Z,98644.48
2018-09-25T16:18:30.748Z,98642.61
2018-09-25T16:23:30.318Z,98650.41
2018-09-25T16:28:30.013Z,98658.80
2018-09-25T16:33:29.600Z,98657.12
2018-09-25T16:38:29.217Z,98651.09
2018-09-25T16:43:28.736Z,98658.69
2018-09-25T16:48:28.409Z,98653.26
2018-09-25T16:53:27.856Z,98653.39
2018-09-25T16:58:27.452Z,98652.89
2018-09-25T17:03:27.212Z,98655.38
2018-09-25T17:08:26.919Z,98658.05
2018-09-25T17:13:26.398Z,98661.46
2018-09-25T17:18:26.032Z,98665.59
2018-09-25T17:23:25.688Z,98668.03
2018-09-25T17:28:25.280Z,98682.03
2018-09-25T17:33:24.864Z,98675.37
2018-09-25T17:38:24.540Z,98679.70
2018-09-25T17:43:24.093Z,98672.37
2018-09-25T17:48:23.772Z,98683.39
2018-09-25T17:53:23.488Z,98690.52
2018-09-25T17:58:23.128Z,98683.67
2018-09-25T18:03:22.708Z,98684.66
2018-09-25T18:08:22.461Z,98682.48
2018-09-25T18:13:22.086Z,98684.77
2018-09-25T18:18:21.816Z,98678.09
2018-09-25T18:23:21.384Z,98681.11
2018-09-25T18:28:21.017Z,98684.70
2018-09-25T18:33:20.607Z,98688.91
2018-09-25T18:38:20.185Z,98694.25
2018-09-25T18:43:19.743Z,98697.77
2018-09-25T18:48:19.437Z,98697.55
2018-09-25T18:53:18.935Z,98705.30
2018-09-25T18:58:18.672Z,98704.52
2018-09-25T19:03:18.260Z,98704.84
2018-09-25T19:08:17.834Z,98704.95
2018-09-25T19:13:17.540Z,98703.00
2018-09-25T19:18:17.116Z,98706.41
2018-09-25T19:23:16.684Z,98711.24
2018-09-25T19:28:16.354Z,98716.97
2018-09-25T19:33:15.977Z,98724.70
2018-09-25T19:38:15.525Z,98729.86
2018-09-25T19:43:14.980Z,98729.73
2018-09-25T19:48:14.605Z,98740.73
2018-09-25T19:53:14.307Z,98726.72
2018-09-25T19:58:14.121Z,98723.13
2018-09-25T20:03:13.949Z,98731.22
2018-09-25T20:08:13.735Z,98743.31
2018-09-25T20:13:13.380Z,98740.26
2018-09-25T20:18:12.992Z,98739.03
2018-09-25T20:23:12.577Z,98742.30
2018-09-25T20:28:12.464Z,98761.53
2018-09-25T20:33:12.320Z,98761.86
2018-09-25T20:38:12.037Z,98767.29
2018-09-25T20:43:12.025Z,98778.13
2018-09-25T20:48:11.758Z,98760.11
2018-09-25T20:53:11.417Z,98765.41
2018-09-25T20:58:11.098Z,98770.98
2018-09-25T21:03:10.608Z,98759.53
2018-09-25T21:08:10.417Z,98761.53
2018-09-25T21:13:10.084Z,98753.19
2018-09-25T21:18:09.775Z,98747.97
2018-09-25T21:23:09.240Z,98731.27
2018-09-25T21:28:08.859Z,98742.27
2018-09-25T21:33:08.565Z,98738.72
2018-09-25T21:38:08.018Z,98730.53
2018-09-25T21:43:07.592Z,98729.90
2018-09-25T21:48:07.232Z,98724.98
2018-09-25T21:53:06.944Z,98727.30
2018-09-25T21:58:06.544Z,98734.52
2018-09-25T22:03:06.077Z,98743.37
2018-09-25T22:08:05.647Z,98747.31
2018-09-25T22:13:05.280Z,98743.06
2018-09-25T22:18:04.792Z,98748.61
2018-09-25T22:23:04.523Z,98743.37
2018-09-25T22:28:04.007Z,98745.68
2018-09-25T22:33:03.635Z,98744.37
2018-09-25T22:38:03.303Z,98741.44
2018-09-25T22:43:02.779Z,98732.45
2018-09-25T22:48:02.507Z,98732.45
2018-09-25T22:53:02.132Z,98742.09
2018-09-25T22:58:01.776Z,98734.59
2018-09-25T23:03:01.467Z,98728.69
2018-09-25T23:08:01.113Z,98729.02
2018-09-25T23:13:00.613Z,98723.14
2018-09-25T23:18:00.140Z,98714.98
2018-09-25T23:22:59.684Z,98710.06
2018-09-25T23:27:59.380Z,98686.87
2018-09-25T23:32:58.904Z,98695.19
2018-09-25T23:37:58.538Z,98691.42
2018-09-25T23:42:58.140Z,98683.42
2018-09-25T23:49:59.424Z,98694.36
2018-09-25T23:54:58.883Z,98675.89
2018-09-25T23:59:59.272Z,98667.22
